createdAt,value
2018-09-24T00:00:56.528Z,61.00
2018-09-24T00:03:24.814Z,58.80
2018-09-24T00:05:53.114Z,61.60
2018-09-24T00:08:21.393Z,59.70
2018-09-24T00:10:49.722Z,60.10
2018-09-24T00:13:18.010Z,58.90
2018-09-24T00:15:46.287Z,60.70
2018-09-24T00:18:14.578Z,60.00
2018-09-24T00:20:42.833Z,58.50
2018-09-24T00:23:11.137Z,60.20
2018-09-24T00:25:39.422Z,59.60
2018-09-24T00:28:07.714Z,59.60
2018-09-24T00:30:36.133Z,59.00
2018-09-24T00:33:04.466Z,59.30
2018-09-24T00:35:32.756Z,57.80
2018-09-24T00:38:01.022Z,59.40
2018-09-24T00:40:29.333Z,58.90
2018-09-24T00:42:57.621Z,60.10
2018-09-24T00:45:26.008Z,58.90
2018-09-24T00:47:54.292Z,59.50
2018-09-24T00:50:22.598Z,59.40
2018-09-24T00:52:51.025Z,59.30
2018-09-24T00:55:19.326Z,59.00
2018-09-24T00:57:47.601Z,58.40
2018-09-24T01:00:15.892Z,59.10
2018-09-24T01:02:44.181Z,59.00
2018-09-24T01:05:12.460Z,58.30
2018-09-24T01:07:40.744Z,58.80
2018-09-24T01:10:09.449Z,58.20
2018-09-24T01:12:37.748Z,58.80
2018-09-24T01:15:06.166Z,58.60
2018-09-24T01:17:34.473Z,57.40
2018-09-24T01:20:02.760Z,58.30
2018-09-24T01:22:31.126Z,58.00
2018-09-24T01:24:59.391Z,58.70
2018-09-24T01:27:27.693Z,56.40
2018-09-24T01:29:55.978Z,57.10
2018-09-24T01:32:24.262Z,59.20
2018-09-24T01:34:52.530Z,58.40
2018-09-24T01:37:20.816Z,59.10
2018-09-24T01:39:49.103Z,58.20
2018-09-24T01:42:17.356Z,58.50
2018-09-24T01:44:45.645Z,58.40
2018-09-24T01:47:13.942Z,58.30
2018-09-24T01:49:42.237Z,58.20
2018-09-24T01:52:10.586Z,58.00
2018-09-24T01:54:39.269Z,58.00
2018-09-24T01:57:13.930Z,57.90
2018-09-24T01:59:47.585Z,57.60
2018-09-24T02:02:16.298Z,57.80
2018-09-24T02:04:44.643Z,57.90
2018-09-24T02:07:12.982Z,56.90
2018-09-24T02:09:41.365Z,57.80
2018-09-24T02:12:09.700Z,57.70
2018-09-24T02:14:38.117Z,57.10
2018-09-24T02:17:10.911Z,57.70
2018-09-24T02:19:39.189Z,58.00
2018-09-24T02:22:07.445Z,57.90
2018-09-24T02:24:35.713Z,57.30
2018-09-24T02:27:07.053Z,58.10
2018-09-24T02:29:35.478Z,57.50
2018-09-24T02:32:03.817Z,57.60
2018-09-24T02:34:32.113Z,57.60
2018-09-24T02:37:00.395Z,57.50
2018-09-24T02:39:28.669Z,57.30
2018-09-24T02:41:57.203Z,57.30
2018-09-24T02:44:26.913Z,57.40
2018-09-24T02:46:55.241Z,57.50
2018-09-24T02:49:23.568Z,57.40
2018-09-24T02:51:52.159Z,57.40
2018-09-24T02:54:20.437Z,57.40
2018-09-24T02:56:50.095Z,57.40
2018-09-24T02:59:18.748Z,57.40
2018-09-24T03:01:47.071Z,57.40
2018-09-24T03:04:15.403Z,57.30
2018-09-24T03:06:43.702Z,57.30
2018-09-24T03:09:15.209Z,57.30
2018-09-24T03:11:43.864Z,57.20
2018-09-24T03:14:12.226Z,57.20
2018-09-24T03:16:40.512Z,57.20
2018-09-24T03:19:08.816Z,57.10
2018-09-24T03:21:37.519Z,57.10
2018-09-24T03:24:07.134Z,57.10
2018-09-24T03:26:40.786Z,57.10
2018-09-24T03:29:09.589Z,57.00
2018-09-24T03:31:37.889Z,57.00
2018-09-24T03:34:07.641Z,57.20
2018-09-24T03:36:35.945Z,57.10
2018-09-24T03:39:05.467Z,57.00
2018-09-24T03:41:33.729Z,57.10
2018-09-24T03:44:02.005Z,57.00
2018-09-24T03:46:30.265Z,57.10
2018-09-24T03:48:58.526Z,57.20
2018-09-24T03:51:26.809Z,57.10
2018-09-24T03:53:55.114Z,57.10
2018-09-24T03:56:23.360Z,57.10
2018-09-24T03:58:51.632Z,57.10
2018-09-24T04:01:19.941Z,57.10
2018-09-24T04:03:48.218Z,57.10
2018-09-24T04:06:21.953Z,57.40
2018-09-24T04:08:55.470Z,57.30
2018-09-24T04:11:29.139Z,57.20
2018-09-24T04:14:02.861Z,57.10
2018-09-24T04:16:36.569Z,57.10
2018-09-24T04:19:10.300Z,57.00
2018-09-24T04:21:43.902Z,57.00
2018-09-24T04:24:17.622Z,57.00
2018-09-24T04:26:51.361Z,56.90
2018-09-24T04:29:25.118Z,56.90
2018-09-24T04:31:58.808Z,56.90
2018-09-24T04:34:32.529Z,56.60
2018-09-24T04:37:06.085Z,56.90
2018-09-24T04:39:39.848Z,56.90
2018-09-24T04:42:13.389Z,56.90
2018-09-24T04:44:47.062Z,56.90
2018-09-24T04:47:20.863Z,56.80
2018-09-24T04:49:54.594Z,56.90
2018-09-24T04:52:28.317Z,56.90
2018-09-24T04:55:01.940Z,56.80
2018-09-24T04:57:35.666Z,56.90
2018-09-24T05:00:09.354Z,56.70
2018-09-24T05:02:43.042Z,56.90
2018-09-24T05:05:16.808Z,56.90
2018-09-24T05:07:50.501Z,56.90
2018-09-24T05:10:24.145Z,56.80
2018-09-24T05:12:57.794Z,56.80
2018-09-24T05:15:31.325Z,56.90
2018-09-24T05:18:05.109Z,56.80
2018-09-24T05:20:38.954Z,56.80
2018-09-24T05:23:12.568Z,56.80
2018-09-24T05:25:46.300Z,56.70
2018-09-24T05:28:20.053Z,56.70
2018-09-24T05:30:53.602Z,56.70
2018-09-24T05:33:27.231Z,56.70
2018-09-24T05:36:00.919Z,56.70
2018-09-24T05:38:34.595Z,56.60
2018-09-24T05:41:08.112Z,56.70
2018-09-24T05:43:41.861Z,56.80
2018-09-24T05:46:15.464Z,56.70
2018-09-24T05:48:49.194Z,56.70
2018-09-24T05:51:22.935Z,56.80
2018-09-24T05:53:56.589Z,56.70
2018-09-24T05:56:30.252Z,56.70
2018-09-24T05:59:03.907Z,56.70
2018-09-24T06:01:37.563Z,56.50
2018-09-24T06:04:11.378Z,56.50
2018-09-24T06:06:44.985Z,56.70
2018-09-24T06:09:18.663Z,56.60
2018-09-24T06:11:52.437Z,56.70
2018-09-24T06:14:26.145Z,56.40
2018-09-24T06:16:59.886Z,56.50
2018-09-24T06:19:33.609Z,56.50
2018-09-24T06:22:07.350Z,56.40
2018-09-24T06:24:41.028Z,56.40
2018-09-24T06:27:14.727Z,56.40
2018-09-24T06:29:48.418Z,56.30
2018-09-24T06:32:22.157Z,56.20
2018-09-24T06:34:55.895Z,56.40
2018-09-24T06:37:29.659Z,56.30
2018-09-24T06:40:03.442Z,56.80
2018-09-24T06:42:37.107Z,57.50
2018-09-24T06:45:10.866Z,57.10
2018-09-24T06:47:45.005Z,57.00
2018-09-24T06:50:18.754Z,56.80
2018-09-24T06:52:52.457Z,56.70
2018-09-24T06:55:26.485Z,56.60
2018-09-24T06:58:00.294Z,56.30
2018-09-24T07:00:34.227Z,56.50
2018-09-24T07:03:07.918Z,56.40
2018-09-24T07:05:48.719Z,55.90
2018-09-24T07:08:22.473Z,56.90
2018-09-24T07:10:56.224Z,56.30
2018-09-24T07:13:29.937Z,56.40
2018-09-24T07:16:03.663Z,56.10
2018-09-24T07:18:37.336Z,56.20
2018-09-24T07:21:11.060Z,56.70
2018-09-24T07:23:44.829Z,56.30
2018-09-24T07:26:18.517Z,56.00
2018-09-24T07:28:52.109Z,56.60
2018-09-24T07:31:25.738Z,56.40
2018-09-24T07:33:59.350Z,56.20
2018-09-24T07:36:33.004Z,56.40
2018-09-24T07:39:06.747Z,56.50
2018-09-24T07:41:40.517Z,56.30
2018-09-24T07:44:14.224Z,56.70
2018-09-24T07:46:47.836Z,56.50
2018-09-24T07:49:21.493Z,56.60
2018-09-24T07:51:55.202Z,55.70
2018-09-24T07:54:29.111Z,56.30
2018-09-24T07:57:02.792Z,56.20
2018-09-24T07:59:36.342Z,56.20
2018-09-24T08:02:10.105Z,56.10
2018-09-24T08:04:43.803Z,55.50
2018-09-24T08:07:17.572Z,56.10
2018-09-24T08:09:51.317Z,55.70
2018-09-24T08:12:25.709Z,56.30
2018-09-24T08:14:59.617Z,55.30
2018-09-24T08:17:33.365Z,56.00
2018-09-24T08:20:07.144Z,55.30
2018-09-24T08:22:40.845Z,55.30
2018-09-24T08:25:14.585Z,54.70
2018-09-24T08:27:48.519Z,55.10
2018-09-24T08:30:22.122Z,54.00
2018-09-24T08:32:55.812Z,54.80
2018-09-24T08:35:29.870Z,55.00
2018-09-24T08:38:04.111Z,54.50
2018-09-24T08:40:37.571Z,54.20
2018-09-24T08:43:11.531Z,54.40
2018-09-24T08:45:45.308Z,54.00
2018-09-24T08:48:18.989Z,52.50
2018-09-24T08:50:52.695Z,54.40
2018-09-24T08:53:26.697Z,52.70
2018-09-24T08:56:00.312Z,53.80
2018-09-24T08:58:34.072Z,53.30
2018-09-24T09:01:08.102Z,52.80
2018-09-24T09:03:41.821Z,53.70
2018-09-24T09:06:15.602Z,54.40
2018-09-24T09:08:49.318Z,53.60
2018-09-24T09:11:23.105Z,52.40
2018-09-24T09:13:57.174Z,53.30
2018-09-24T09:16:30.922Z,52.60
2018-09-24T09:19:04.538Z,54.30
2018-09-24T09:21:38.212Z,51.90
2018-09-24T09:24:11.867Z,52.70
2018-09-24T09:26:45.536Z,51.90
2018-09-24T09:29:19.180Z,53.70
2018-09-24T09:31:52.869Z,52.90
2018-09-24T09:34:26.458Z,51.30
2018-09-24T09:37:00.239Z,52.10
2018-09-24T09:39:33.977Z,53.70
2018-09-24T09:42:07.674Z,52.20
2018-09-24T09:44:42.206Z,52.90
2018-09-24T09:47:16.190Z,51.80
2018-09-24T09:49:50.102Z,52.80
2018-09-24T09:52:23.837Z,51.70
2018-09-24T09:54:57.529Z,52.40
2018-09-24T09:57:31.213Z,52.40
2018-09-24T10:00:04.949Z,51.20
2018-09-24T10:02:38.629Z,51.00
2018-09-24T10:05:12.533Z,52.70
2018-09-24T10:07:46.333Z,51.70
2018-09-24T10:10:20.013Z,49.20
2018-09-24T10:12:53.742Z,51.20
2018-09-24T10:15:27.554Z,50.80
2018-09-24T10:18:01.246Z,49.90
2018-09-24T10:20:34.942Z,50.80
2018-09-24T10:23:08.659Z,49.30
2018-09-24T10:25:42.296Z,50.90
2018-09-24T10:28:15.972Z,51.30
2018-09-24T10:30:49.745Z,50.60
2018-09-24T10:33:23.510Z,51.00
2018-09-24T10:35:57.217Z,49.20
2018-09-24T10:38:30.920Z,50.00
2018-09-24T10:41:04.532Z,47.80
2018-09-24T10:43:38.227Z,49.90
2018-09-24T10:46:12.250Z,47.20
2018-09-24T10:48:45.787Z,51.60
2018-09-24T10:51:19.402Z,50.70
2018-09-24T10:53:53.101Z,49.30
2018-09-24T10:56:26.855Z,51.00
2018-09-24T10:59:00.729Z,47.50
2018-09-24T11:01:34.363Z,50.60
2018-09-24T11:04:07.956Z,50.60
2018-09-24T11:06:41.573Z,48.10
2018-09-24T11:09:15.138Z,49.80
2018-09-24T11:11:48.760Z,48.70
2018-09-24T11:14:22.263Z,50.60
2018-09-24T11:16:56.111Z,50.30
2018-09-24T11:19:30.196Z,50.30
2018-09-24T11:22:04.101Z,49.40
2018-09-24T11:24:37.875Z,50.00
2018-09-24T11:27:11.757Z,48.40
2018-09-24T11:29:45.436Z,48.20
2018-09-24T11:32:19.152Z,48.80
2018-09-24T11:34:52.912Z,48.10
2018-09-24T11:37:26.540Z,45.00
2018-09-24T11:40:01.010Z,50.20
2018-09-24T11:42:34.440Z,48.20
2018-09-24T11:45:08.176Z,50.40
2018-09-24T11:47:41.885Z,45.90
2018-09-24T11:50:15.589Z,50.10
2018-09-24T11:52:49.291Z,50.00
2018-09-24T11:55:22.932Z,46.50
2018-09-24T11:57:56.679Z,48.30
2018-09-24T12:00:30.441Z,48.00
2018-09-24T12:03:04.164Z,49.60
2018-09-24T12:05:37.949Z,47.90
2018-09-24T12:08:11.622Z,49.60
2018-09-24T12:10:45.216Z,48.80
2018-09-24T12:13:18.849Z,46.40
2018-09-24T12:15:52.538Z,43.40
2018-09-24T12:18:26.257Z,43.80
2018-09-24T12:20:59.873Z,49.90
2018-09-24T12:23:33.550Z,47.70
2018-09-24T12:26:07.165Z,48.50
2018-09-24T12:28:40.872Z,46.70
2018-09-24T12:31:14.492Z,45.20
2018-09-24T12:33:48.197Z,46.60
2018-09-24T12:36:21.927Z,47.50
2018-09-24T12:38:55.649Z,47.40
2018-09-24T12:41:29.383Z,46.20
2018-09-24T12:44:03.173Z,43.70
2018-09-24T12:46:36.709Z,47.10
2018-09-24T12:49:10.413Z,46.10
2018-09-24T12:51:44.101Z,47.70
2018-09-24T12:54:17.865Z,47.90
2018-09-24T12:56:51.542Z,47.30
2018-09-24T12:59:25.222Z,44.10
2018-09-24T13:01:58.868Z,48.00
2018-09-24T13:04:32.519Z,44.30
2018-09-24T13:07:06.329Z,47.00
2018-09-24T13:09:40.154Z,44.70
2018-09-24T13:12:14.292Z,45.00
2018-09-24T13:14:48.060Z,44.80
2018-09-24T13:17:22.096Z,47.40
2018-09-24T13:19:56.347Z,47.70
2018-09-24T13:22:30.121Z,47.70
2018-09-24T13:25:04.054Z,48.20
2018-09-24T13:27:38.070Z,46.70
2018-09-24T13:30:14.612Z,48.20
2018-09-24T13:32:48.183Z,47.50
2018-09-24T13:35:21.793Z,43.50
2018-09-24T13:37:55.495Z,46.80
2018-09-24T13:40:29.212Z,47.80
2018-09-24T13:43:03.000Z,43.80
2018-09-24T13:45:36.722Z,45.50
2018-09-24T13:48:10.368Z,47.60
2018-09-24T13:50:44.095Z,45.70
2018-09-24T13:53:18.846Z,46.70
2018-09-24T13:55:52.412Z,44.50
2018-09-24T13:58:26.467Z,45.70
2018-09-24T14:01:00.109Z,48.10
2018-09-24T14:03:33.849Z,47.80
2018-09-24T14:06:07.582Z,47.90
2018-09-24T14:08:41.462Z,44.00
2018-09-24T14:11:15.083Z,45.60
2018-09-24T14:13:48.971Z,43.90
2018-09-24T14:16:22.588Z,45.70
2018-09-24T14:18:56.682Z,47.50
2018-09-24T14:21:30.371Z,45.30
2018-09-24T14:24:04.354Z,46.20
2018-09-24T14:26:38.275Z,46.50
2018-09-24T14:29:12.367Z,45.50
2018-09-24T14:31:45.834Z,45.70
2018-09-24T14:34:19.484Z,46.30
2018-09-24T14:36:53.397Z,43.90
2018-09-24T14:39:26.934Z,46.70
2018-09-24T14:42:00.659Z,47.50
2018-09-24T14:44:34.341Z,45.00
2018-09-24T14:47:07.977Z,46.80
2018-09-24T14:49:41.817Z,43.30
2018-09-24T14:52:15.625Z,43.90
2018-09-24T14:54:49.355Z,46.20
2018-09-24T14:57:24.142Z,47.30
2018-09-24T14:59:57.741Z,42.00
2018-09-24T15:02:31.453Z,47.00
2018-09-24T15:05:05.173Z,46.50
2018-09-24T15:07:38.988Z,44.60
2018-09-24T15:10:12.556Z,45.50
2018-09-24T15:12:46.293Z,47.30
2018-09-24T15:15:19.882Z,47.50
2018-09-24T15:17:53.532Z,47.20
2018-09-24T15:20:27.018Z,45.50
2018-09-24T15:23:00.556Z,42.40
2018-09-24T15:25:34.221Z,45.50
2018-09-24T15:28:07.983Z,47.90
2018-09-24T15:30:41.562Z,45.20
2018-09-24T15:33:15.145Z,45.00
2018-09-24T15:35:48.732Z,47.90
2018-09-24T15:38:22.380Z,47.60
2018-09-24T15:40:56.165Z,47.70
2018-09-24T15:43:29.865Z,47.60
2018-09-24T15:46:03.548Z,48.20
2018-09-24T15:48:37.018Z,47.40
2018-09-24T15:51:10.976Z,47.50
2018-09-24T15:53:44.826Z,47.60
2018-09-24T15:56:18.513Z,47.70
2018-09-24T15:58:52.225Z,45.80
2018-09-24T16:01:25.995Z,46.20
2018-09-24T16:03:59.658Z,46.60
2018-09-24T16:06:33.359Z,44.50
2018-09-24T16:09:07.131Z,46.10
2018-09-24T16:11:40.865Z,46.30
2018-09-24T16:14:14.609Z,46.30
2018-09-24T16:16:48.282Z,47.00
2018-09-24T16:19:22.017Z,45.20
2018-09-24T16:21:55.875Z,47.70
2018-09-24T16:24:29.641Z,45.70
2018-09-24T16:27:03.474Z,48.00
2018-09-24T16:29:37.318Z,47.90
2018-09-24T16:32:10.984Z,47.80
2018-09-24T16:34:44.732Z,47.60
2018-09-24T16:37:18.289Z,46.60
2018-09-24T16:39:52.009Z,47.60
2018-09-24T16:42:25.837Z,47.70
2018-09-24T16:44:59.346Z,47.70
2018-09-24T16:47:33.206Z,45.70
2018-09-24T16:50:06.761Z,46.80
2018-09-24T16:52:40.465Z,46.50
2018-09-24T16:55:14.117Z,47.60
2018-09-24T16:57:47.814Z,47.70
2018-09-24T17:00:21.409Z,47.60
2018-09-24T17:02:55.108Z,47.60
2018-09-24T17:05:28.845Z,47.80
2018-09-24T17:08:02.486Z,47.80
2018-09-24T17:10:36.266Z,47.80
2018-09-24T17:13:09.969Z,47.70
2018-09-24T17:15:43.789Z,47.60
2018-09-24T17:18:17.418Z,47.60
2018-09-24T17:20:51.197Z,47.60
2018-09-24T17:23:24.870Z,47.70
2018-09-24T17:25:58.750Z,47.70
2018-09-24T17:28:32.508Z,47.80
2018-09-24T17:31:06.093Z,47.70
2018-09-24T17:33:39.830Z,47.80
2018-09-24T17:36:13.652Z,47.80
2018-09-24T17:38:47.235Z,47.80
2018-09-24T17:41:20.967Z,47.90
2018-09-24T17:43:54.666Z,47.80
2018-09-24T17:46:28.220Z,47.80
2018-09-24T17:49:01.916Z,47.80
2018-09-24T17:51:35.544Z,47.80
2018-09-24T17:54:09.401Z,47.80
2018-09-24T17:56:43.090Z,47.70
2018-09-24T17:59:16.876Z,47.80
2018-09-24T18:01:50.469Z,47.80
2018-09-24T18:04:24.293Z,47.80
2018-09-24T18:06:57.741Z,48.00
2018-09-24T18:09:31.425Z,47.80
2018-09-24T18:12:05.407Z,47.90
2018-09-24T18:14:39.288Z,48.00
2018-09-24T18:17:13.113Z,48.00
2018-09-24T18:19:47.334Z,48.00
2018-09-24T18:22:21.421Z,48.00
2018-09-24T18:24:55.437Z,48.00
2018-09-24T18:27:29.085Z,48.10
2018-09-24T18:30:03.059Z,48.30
2018-09-24T18:32:37.668Z,48.40
2018-09-24T18:35:12.063Z,48.50
2018-09-24T18:37:45.799Z,48.50
2018-09-24T18:40:19.433Z,48.60
2018-09-24T18:42:53.157Z,48.70
2018-09-24T18:45:26.797Z,48.70
2018-09-24T18:48:00.494Z,48.70
2018-09-24T18:50:34.081Z,48.70
2018-09-24T18:53:07.785Z,48.80
2018-09-24T18:55:41.491Z,48.90
2018-09-24T18:58:15.098Z,48.90
2018-09-24T19:00:48.683Z,48.90
2018-09-24T19:03:22.409Z,49.00
2018-09-24T19:05:56.189Z,49.10
2018-09-24T19:08:29.895Z,49.20
2018-09-24T19:11:03.505Z,49.20
2018-09-24T19:13:37.076Z,49.20
2018-09-24T19:16:10.681Z,49.30
2018-09-24T19:18:44.333Z,49.30
2018-09-24T19:21:17.934Z,49.30
2018-09-24T19:23:51.681Z,49.30
2018-09-24T19:26:25.315Z,49.30
2018-09-24T19:28:58.958Z,48.80
2018-09-24T19:31:32.727Z,49.30
2018-09-24T19:34:06.326Z,49.40
2018-09-24T19:36:40.051Z,49.50
2018-09-24T19:39:14.203Z,49.50
2018-09-24T19:41:48.240Z,49.50
2018-09-24T19:44:21.978Z,49.40
2018-09-24T19:46:55.681Z,49.50
2018-09-24T19:49:29.508Z,49.50
2018-09-24T19:52:03.169Z,49.70
2018-09-24T19:54:36.722Z,49.60
2018-09-24T19:57:10.573Z,49.70
2018-09-24T19:59:44.185Z,49.70
2018-09-24T20:02:17.869Z,49.80
2018-09-24T20:04:51.469Z,49.90
2018-09-24T20:07:25.240Z,49.90
2018-09-24T20:09:58.933Z,50.00
2018-09-24T20:12:32.609Z,49.90
2018-09-24T20:15:06.387Z,50.00
2018-09-24T20:17:40.093Z,50.00
2018-09-24T20:20:13.688Z,50.00
2018-09-24T20:22:47.400Z,50.00
2018-09-24T20:25:21.095Z,50.00
2018-09-24T20:27:54.852Z,50.10
2018-09-24T20:30:28.681Z,50.20
2018-09-24T20:33:02.399Z,50.10
2018-09-24T20:35:36.122Z,50.20
2018-09-24T20:38:09.849Z,50.10
2018-09-24T20:40:43.578Z,50.20
2018-09-24T20:43:17.171Z,50.30
2018-09-24T20:45:50.932Z,50.20
2018-09-24T20:48:24.611Z,50.20
2018-09-24T20:50:58.318Z,50.30
2018-09-24T20:53:32.005Z,50.30
2018-09-24T20:56:05.708Z,50.30
2018-09-24T20:58:39.437Z,50.30
2018-09-24T21:01:13.216Z,50.40
2018-09-24T21:03:46.706Z,50.40
2018-09-24T21:06:20.465Z,50.50
2018-09-24T21:08:54.230Z,50.40
2018-09-24T21:11:27.840Z,50.40
2018-09-24T21:14:01.557Z,50.50
2018-09-24T21:16:36.155Z,50.40
2018-09-24T21:19:09.889Z,50.40
2018-09-24T21:21:43.592Z,50.50
2018-09-24T21:24:17.412Z,50.40
2018-09-24T21:26:51.116Z,50.50
2018-09-24T21:29:24.818Z,50.40
2018-09-24T21:31:58.410Z,50.40
2018-09-24T21:34:32.112Z,50.40
2018-09-24T21:37:05.720Z,50.40
2018-09-24T21:39:39.419Z,50.40
2018-09-24T21:42:13.191Z,50.50
2018-09-24T21:44:46.953Z,50.50
2018-09-24T21:47:20.637Z,50.50
2018-09-24T21:49:54.482Z,50.60
2018-09-24T21:52:28.144Z,50.70
2018-09-24T21:55:02.269Z,50.60
2018-09-24T21:57:35.977Z,50.50
2018-09-24T22:00:10.056Z,50.60
2018-09-24T22:02:43.800Z,50.60
2018-09-24T22:05:17.601Z,50.50
2018-09-24T22:07:51.293Z,50.50
2018-09-24T22:10:25.028Z,50.50
2018-09-24T22:12:58.668Z,50.50
2018-09-24T22:15:32.385Z,50.50
2018-09-24T22:18:06.036Z,50.60
2018-09-24T22:20:39.693Z,50.30
2018-09-24T22:23:13.223Z,51.30
2018-09-24T22:25:46.930Z,50.70
2018-09-24T22:28:20.529Z,50.60
2018-09-24T22:30:54.279Z,50.60
2018-09-24T22:33:27.961Z,50.70
2018-09-24T22:36:01.769Z,50.40
2018-09-24T22:38:35.317Z,50.60
2018-09-24T22:41:09.024Z,50.60
2018-09-24T22:43:42.602Z,50.60
2018-09-24T22:46:16.345Z,50.60
2018-09-24T22:48:50.032Z,50.70
2018-09-24T22:51:23.753Z,50.60
2018-09-24T22:53:57.301Z,50.60
2018-09-24T22:56:30.995Z,50.70
2018-09-24T22:59:04.677Z,50.70
2018-09-24T23:01:38.416Z,50.70
2018-09-24T23:04:12.193Z,50.70
2018-09-24T23:06:45.874Z,50.70
2018-09-24T23:09:19.308Z,50.60
2018-09-24T23:11:53.080Z,50.60
2018-09-24T23:14:26.857Z,50.70
2018-09-24T23:17:00.559Z,50.70
2018-09-24T23:19:34.272Z,50.60
2018-09-24T23:22:08.022Z,50.60
2018-09-24T23:24:41.745Z,50.70
2018-09-24T23:27:15.329Z,50.60
2018-09-24T23:29:48.901Z,50.70
2018-09-24T23:32:22.558Z,50.80
2018-09-24T23:34:56.007Z,50.70
2018-09-24T23:37:29.769Z,50.60
2018-09-24T23:40:03.364Z,50.60
2018-09-24T23:42:37.116Z,50.50
2018-09-24T23:45:10.657Z,50.50
2018-09-24T23:47:44.344Z,50.50
2018-09-24T23:50:18.196Z,50.60
2018-09-24T23:52:51.877Z,50.50
2018-09-24T23:55:25.525Z,50.60
2018-09-24T23:57:59.181Z,50.50
